createdAt,value
2017-12-15T00:00:34.133Z,3.67
2017-12-15T00:03:01.755Z,7.97
2017-12-15T00:05:29.291Z,4.95
2017-12-15T00:07:57.550Z,4.68
2017-12-15T00:10:25.800Z,5.62
2017-12-15T00:12:53.306Z,5.05
2017-12-15T00:15:21.584Z,6.30
2017-12-15T00:17:49.865Z,9.93
2017-12-15T00:20:18.137Z,6.72
2017-12-15T00:22:46.444Z,2.53
2017-12-15T00:25:14.685Z,7.83
2017-12-15T00:27:43.016Z,5.75
2017-12-15T00:30:11.378Z,13.93
2017-12-15T00:32:39.638Z,6.50
2017-12-15T00:35:07.917Z,7.43
2017-12-15T00:37:36.204Z,16.30
2017-12-15T00:40:04.452Z,14.70
2017-12-15T00:42:31.988Z,4.00
2017-12-15T00:44:59.484Z,4.73
2017-12-15T00:47:26.971Z,8.77
2017-12-15T00:49:54.544Z,10.70
2017-12-15T00:52:22.114Z,4.43
2017-12-15T00:54:49.785Z,6.77
2017-12-15T00:57:18.033Z,7.00
2017-12-15T00:59:45.536Z,10.83
2017-12-15T01:02:13.622Z,6.67
2017-12-15T01:04:41.109Z,9.60
2017-12-15T01:07:08.619Z,4.87
2017-12-15T01:09:36.887Z,6.93
2017-12-15T01:12:04.364Z,4.35
2017-12-15T01:14:32.637Z,4.43
2017-12-15T01:17:00.347Z,4.40
2017-12-15T01:19:27.873Z,4.72
2017-12-15T01:21:56.144Z,5.17
2017-12-15T01:24:23.640Z,2.90
2017-12-15T01:26:51.196Z,8.07
2017-12-15T01:29:18.686Z,8.43
2017-12-15T01:31:46.200Z,7.30
2017-12-15T01:34:15.820Z,10.55
2017-12-15T01:36:44.125Z,10.77
2017-12-15T01:39:11.665Z,8.10
2017-12-15T01:41:39.917Z,10.20
2017-12-15T01:44:07.417Z,7.00
2017-12-15T01:46:35.695Z,7.12
2017-12-15T01:49:03.967Z,9.85
2017-12-15T01:51:31.590Z,9.32
2017-12-15T01:53:59.115Z,11.32
2017-12-15T01:56:29.508Z,9.25
2017-12-15T01:58:57.038Z,6.57
2017-12-15T02:01:24.528Z,9.50
2017-12-15T02:03:52.042Z,5.87
2017-12-15T02:06:20.321Z,11.07
2017-12-15T02:08:47.832Z,9.65
2017-12-15T02:11:15.324Z,6.32
2017-12-15T02:13:43.573Z,7.20
2017-12-15T02:16:11.061Z,8.43
2017-12-15T02:18:38.667Z,6.75
2017-12-15T02:21:06.209Z,8.10
2017-12-15T02:23:34.482Z,6.43
2017-12-15T02:26:02.741Z,5.43
2017-12-15T02:28:30.361Z,7.70
2017-12-15T02:30:57.909Z,12.50
2017-12-15T02:33:25.888Z,8.75
2017-12-15T02:35:53.444Z,12.15
2017-12-15T02:38:20.951Z,8.73
2017-12-15T02:40:48.464Z,7.85
2017-12-15T02:43:16.709Z,8.52
2017-12-15T02:45:44.305Z,10.07
2017-12-15T02:48:12.561Z,7.57
2017-12-15T02:50:40.058Z,15.48
2017-12-15T02:53:07.633Z,10.15
2017-12-15T02:55:36.105Z,9.05
2017-12-15T02:58:04.395Z,7.82
2017-12-15T03:00:32.426Z,14.20
2017-12-15T03:02:59.923Z,7.68
2017-12-15T03:05:28.895Z,7.75
2017-12-15T03:07:57.152Z,5.43
2017-12-15T03:10:24.698Z,10.45
2017-12-15T03:12:52.209Z,16.37
2017-12-15T03:15:19.686Z,11.30
2017-12-15T03:17:47.962Z,6.80
2017-12-15T03:20:16.239Z,5.78
2017-12-15T03:22:44.532Z,26.80
2017-12-15T03:25:12.834Z,15.02
2017-12-15T03:27:40.342Z,9.57
2017-12-15T03:30:07.925Z,7.32
2017-12-15T03:32:35.426Z,7.80
2017-12-15T03:35:02.949Z,7.32
2017-12-15T03:37:30.537Z,8.77
2017-12-15T03:39:58.785Z,5.55
2017-12-15T03:42:26.296Z,3.87
2017-12-15T03:44:53.799Z,5.82
2017-12-15T03:47:21.485Z,6.90
2017-12-15T03:49:49.071Z,3.85
2017-12-15T03:52:16.533Z,3.83
2017-12-15T03:54:44.816Z,10.75
2017-12-15T03:57:13.080Z,4.43
2017-12-15T03:59:41.669Z,5.75
2017-12-15T04:02:09.933Z,7.93
2017-12-15T04:04:37.409Z,4.90
2017-12-15T04:07:04.900Z,3.65
2017-12-15T04:09:32.451Z,4.82
2017-12-15T04:12:00.756Z,5.75
2017-12-15T04:14:28.244Z,4.50
2017-12-15T04:16:55.748Z,6.93
2017-12-15T04:19:23.999Z,4.30
2017-12-15T04:21:51.496Z,5.32
2017-12-15T04:24:19.764Z,7.03
2017-12-15T04:26:47.250Z,10.23
2017-12-15T04:29:14.853Z,7.35
2017-12-15T04:31:42.341Z,9.45
2017-12-15T04:34:09.845Z,9.45
2017-12-15T04:36:37.393Z,8.00
2017-12-15T04:39:05.841Z,7.40
2017-12-15T04:41:33.396Z,7.35
2017-12-15T04:44:01.298Z,7.50
2017-12-15T04:46:28.780Z,6.68
2017-12-15T04:48:57.102Z,7.45
2017-12-15T04:51:24.595Z,6.80
2017-12-15T04:53:52.980Z,5.15
2017-12-15T04:56:20.757Z,6.70
2017-12-15T04:58:49.053Z,7.28
2017-12-15T05:01:17.304Z,5.70
2017-12-15T05:03:44.803Z,9.38
2017-12-15T05:06:13.079Z,6.07
2017-12-15T05:08:41.324Z,4.97
2017-12-15T05:11:09.734Z,10.55
2017-12-15T05:13:37.991Z,7.35
2017-12-15T05:16:05.540Z,9.13
2017-12-15T05:18:33.064Z,6.90
2017-12-15T05:21:00.551Z,5.93
2017-12-15T05:23:28.040Z,6.70
2017-12-15T05:25:55.541Z,11.23
2017-12-15T05:28:23.815Z,6.85
2017-12-15T05:30:52.095Z,9.18
2017-12-15T05:33:20.360Z,7.70
2017-12-15T05:35:47.858Z,9.55
2017-12-15T05:38:15.376Z,7.72
2017-12-15T05:40:42.877Z,10.63
2017-12-15T05:43:10.362Z,12.18
2017-12-15T05:45:38.605Z,12.93
2017-12-15T05:48:07.828Z,10.63
2017-12-15T05:50:36.980Z,10.80
2017-12-15T05:53:04.464Z,12.68
2017-12-15T05:55:32.717Z,13.38
2017-12-15T05:58:00.236Z,8.05
2017-12-15T06:00:27.740Z,11.02
2017-12-15T06:02:55.350Z,6.25
2017-12-15T06:05:23.626Z,8.73
2017-12-15T06:07:51.925Z,8.93
2017-12-15T06:10:19.473Z,5.95
2017-12-15T06:12:47.735Z,8.40
2017-12-15T06:15:15.322Z,5.60
2017-12-15T06:17:43.583Z,8.98
2017-12-15T06:20:12.613Z,9.57
2017-12-15T06:22:40.388Z,8.25
2017-12-15T06:25:07.957Z,11.88
2017-12-15T06:27:35.492Z,7.00
2017-12-15T06:30:03.775Z,11.82
2017-12-15T06:32:33.074Z,8.07
2017-12-15T06:35:01.371Z,11.68
2017-12-15T06:37:29.616Z,11.70
2017-12-15T06:39:57.152Z,10.18
2017-12-15T06:42:24.679Z,13.20
2017-12-15T06:44:52.929Z,17.27
2017-12-15T06:47:21.230Z,9.13
2017-12-15T06:49:51.666Z,8.00
2017-12-15T06:52:19.939Z,8.88
2017-12-15T06:54:48.253Z,8.10
2017-12-15T06:57:15.756Z,13.88
2017-12-15T06:59:43.275Z,21.75
2017-12-15T07:02:10.769Z,14.38
2017-12-15T07:04:38.286Z,9.35
2017-12-15T07:07:05.847Z,6.25
2017-12-15T07:09:34.146Z,9.70
2017-12-15T07:12:01.679Z,12.65
2017-12-15T07:14:29.939Z,8.85
2017-12-15T07:16:57.481Z,8.88
2017-12-15T07:19:25.034Z,10.57
2017-12-15T07:21:52.565Z,11.43
2017-12-15T07:24:20.928Z,12.15
2017-12-15T07:26:49.309Z,15.73
2017-12-15T07:29:16.914Z,12.10
2017-12-15T07:31:44.401Z,14.27
2017-12-15T07:34:11.946Z,14.07
2017-12-15T07:36:39.489Z,15.20
2017-12-15T07:39:06.974Z,10.50
2017-12-15T07:41:34.540Z,12.07
2017-12-15T07:44:02.032Z,13.98
2017-12-15T07:46:29.680Z,15.57
2017-12-15T07:48:57.213Z,10.77
2017-12-15T07:51:24.732Z,11.32
2017-12-15T07:53:52.994Z,17.25
2017-12-15T07:56:20.476Z,9.93
2017-12-15T07:58:48.072Z,10.97
2017-12-15T08:01:16.370Z,14.57
2017-12-15T08:03:43.906Z,11.48
2017-12-15T08:06:13.000Z,13.62
2017-12-15T08:08:40.619Z,11.15
2017-12-15T08:11:08.144Z,14.27
2017-12-15T08:13:36.409Z,10.60
2017-12-15T08:16:03.976Z,13.80
2017-12-15T08:18:31.514Z,27.67
2017-12-15T08:20:59.032Z,10.18
2017-12-15T08:23:26.607Z,11.57
2017-12-15T08:25:54.104Z,12.50
2017-12-15T08:28:21.609Z,20.55
2017-12-15T08:30:49.996Z,12.82
2017-12-15T08:33:17.550Z,12.90
2017-12-15T08:35:45.861Z,17.20
2017-12-15T08:38:14.210Z,14.80
2017-12-15T08:40:42.461Z,13.40
2017-12-15T08:43:09.983Z,13.98
2017-12-15T08:45:37.468Z,9.43
2017-12-15T08:48:05.745Z,13.30
2017-12-15T08:50:34.459Z,27.45
2017-12-15T08:53:01.942Z,15.65
2017-12-15T08:55:30.258Z,18.27
2017-12-15T08:57:57.741Z,10.23
2017-12-15T09:00:25.256Z,16.40
2017-12-15T09:02:53.556Z,22.97
2017-12-15T09:05:21.085Z,20.63
2017-12-15T09:07:48.669Z,18.70
2017-12-15T09:10:17.306Z,15.07
2017-12-15T09:12:45.978Z,25.73
2017-12-15T09:15:13.965Z,21.47
2017-12-15T09:17:41.489Z,24.50
2017-12-15T09:20:09.008Z,17.90
2017-12-15T09:22:36.490Z,15.57
2017-12-15T09:25:05.636Z,20.47
2017-12-15T09:27:33.308Z,14.25
2017-12-15T09:30:00.816Z,26.17
2017-12-15T09:32:28.314Z,15.27
2017-12-15T09:34:56.503Z,18.20
2017-12-15T09:37:24.060Z,16.30
2017-12-15T09:39:52.363Z,14.60
2017-12-15T09:42:20.263Z,16.23
2017-12-15T09:44:48.538Z,16.40
2017-12-15T09:47:16.388Z,23.70
2017-12-15T09:49:45.016Z,24.90
2017-12-15T09:52:13.742Z,18.00
2017-12-15T09:54:42.781Z,15.40
2017-12-15T09:57:10.585Z,15.77
2017-12-15T09:59:38.279Z,15.57
2017-12-15T10:02:07.104Z,10.82
2017-12-15T10:04:35.401Z,13.70
2017-12-15T10:07:03.504Z,22.83
2017-12-15T10:09:31.251Z,15.03
2017-12-15T10:11:59.026Z,12.17
2017-12-15T10:14:27.138Z,11.27
2017-12-15T10:16:54.792Z,15.00
2017-12-15T10:19:22.395Z,10.07
2017-12-15T10:21:49.959Z,13.77
2017-12-15T10:24:18.500Z,12.55
2017-12-15T10:26:47.366Z,18.27
2017-12-15T10:29:15.054Z,17.50
2017-12-15T10:31:44.252Z,13.73
2017-12-15T10:34:13.403Z,11.70
2017-12-15T10:36:41.113Z,15.73
2017-12-15T10:39:08.642Z,26.42
2017-12-15T10:41:36.403Z,15.85
2017-12-15T10:44:04.176Z,14.52
2017-12-15T10:46:32.114Z,13.52
2017-12-15T10:48:59.681Z,16.17
2017-12-15T10:51:27.381Z,18.37
2017-12-15T10:53:55.181Z,12.43
2017-12-15T10:56:22.709Z,20.50
2017-12-15T10:58:50.571Z,18.70
2017-12-15T11:01:19.559Z,17.02
2017-12-15T11:03:47.940Z,15.60
2017-12-15T11:06:16.220Z,15.30
2017-12-15T11:08:44.172Z,12.43
2017-12-15T11:11:11.682Z,19.87
2017-12-15T11:13:39.252Z,15.85
2017-12-15T11:16:06.820Z,15.23
2017-12-15T11:18:34.361Z,17.42
2017-12-15T11:21:02.639Z,13.30
2017-12-15T11:23:30.884Z,15.57
2017-12-15T11:25:58.405Z,16.92
2017-12-15T11:28:26.276Z,13.18
2017-12-15T11:30:53.909Z,18.20
2017-12-15T11:33:22.198Z,13.13
2017-12-15T11:35:49.698Z,20.90
2017-12-15T11:38:17.208Z,11.70
2017-12-15T11:40:45.899Z,12.90
2017-12-15T11:43:13.401Z,22.17
2017-12-15T11:45:40.951Z,15.15
2017-12-15T11:48:08.456Z,21.05
2017-12-15T11:50:35.946Z,14.20
2017-12-15T11:53:03.458Z,17.17
2017-12-15T11:55:30.963Z,16.50
2017-12-15T11:57:59.979Z,21.27
2017-12-15T12:00:28.277Z,14.50
2017-12-15T12:02:55.769Z,16.17
2017-12-15T12:05:23.272Z,15.32
2017-12-15T12:07:50.791Z,21.70
2017-12-15T12:10:18.362Z,17.92
2017-12-15T12:12:45.895Z,16.12
2017-12-15T12:15:14.193Z,15.75
2017-12-15T12:17:43.527Z,13.73
2017-12-15T12:20:12.002Z,12.32
2017-12-15T12:22:39.554Z,11.77
2017-12-15T12:25:07.113Z,7.40
2017-12-15T12:27:34.797Z,13.50
2017-12-15T12:30:03.405Z,10.10
2017-12-15T12:32:30.936Z,8.70
2017-12-15T12:34:58.484Z,13.60
2017-12-15T12:37:26.837Z,14.23
2017-12-15T12:39:54.344Z,13.07
2017-12-15T12:42:21.843Z,12.70
2017-12-15T12:44:49.337Z,8.88
2017-12-15T12:47:17.676Z,11.95
2017-12-15T12:49:45.156Z,13.35
2017-12-15T12:52:13.821Z,10.55
2017-12-15T12:54:41.340Z,8.43
2017-12-15T12:57:09.853Z,6.55
2017-12-15T12:59:37.317Z,6.80
2017-12-15T13:02:05.179Z,6.62
2017-12-15T13:04:32.716Z,5.25
2017-12-15T13:07:01.001Z,8.45
2017-12-15T13:09:29.293Z,6.28
2017-12-15T13:11:56.860Z,6.10
2017-12-15T13:14:25.127Z,4.20
2017-12-15T13:16:53.411Z,6.93
2017-12-15T13:19:21.932Z,5.75
2017-12-15T13:21:49.457Z,9.35
2017-12-15T13:24:17.785Z,7.72
2017-12-15T13:26:45.342Z,7.78
2017-12-15T13:29:12.886Z,10.55
2017-12-15T13:31:41.262Z,7.70
2017-12-15T13:34:08.928Z,8.00
2017-12-15T13:36:37.193Z,20.73
2017-12-15T13:39:05.505Z,8.75
2017-12-15T13:41:33.091Z,14.27
2017-12-15T13:44:01.148Z,12.93
2017-12-15T13:46:28.650Z,11.48
2017-12-15T13:48:56.249Z,13.52
2017-12-15T13:51:24.677Z,13.77
2017-12-15T13:53:52.502Z,12.90
2017-12-15T13:56:20.740Z,17.55
2017-12-15T13:58:48.270Z,14.70
2017-12-15T14:01:15.805Z,17.00
2017-12-15T14:03:43.294Z,23.55
2017-12-15T14:06:10.840Z,19.50
2017-12-15T14:08:38.332Z,21.75
2017-12-15T14:11:06.062Z,22.02
2017-12-15T14:13:34.349Z,24.25
2017-12-15T14:16:02.626Z,25.25
2017-12-15T14:18:30.907Z,21.33
2017-12-15T14:20:59.234Z,22.50
2017-12-15T14:23:27.079Z,27.08
2017-12-15T14:25:54.593Z,32.38
2017-12-15T14:28:22.082Z,26.67
2017-12-15T14:30:50.370Z,24.67
2017-12-15T14:33:18.640Z,28.42
2017-12-15T14:35:46.908Z,29.90
2017-12-15T14:38:14.429Z,39.90
2017-12-15T14:40:41.968Z,29.08
2017-12-15T14:43:09.487Z,31.62
2017-12-15T14:45:37.092Z,35.92
2017-12-15T14:48:05.353Z,29.15
2017-12-15T14:50:32.883Z,28.83
2017-12-15T14:53:00.398Z,32.25
2017-12-15T14:55:28.672Z,38.35
2017-12-15T14:57:57.922Z,32.13
2017-12-15T15:00:25.428Z,36.70
2017-12-15T15:02:52.951Z,37.85
2017-12-15T15:05:20.485Z,27.60
2017-12-15T15:07:48.255Z,45.92
2017-12-15T15:10:15.795Z,39.03
2017-12-15T15:12:43.336Z,29.65
2017-12-15T15:15:10.853Z,33.20
2017-12-15T15:17:39.883Z,27.65
2017-12-15T15:20:07.418Z,32.88
2017-12-15T15:22:34.919Z,32.58
2017-12-15T15:25:02.436Z,34.50
2017-12-15T15:27:30.528Z,28.27
2017-12-15T15:29:58.040Z,35.40
2017-12-15T15:32:25.568Z,34.60
2017-12-15T15:34:53.060Z,31.02
2017-12-15T15:37:20.560Z,32.60
2017-12-15T15:39:48.097Z,42.55
2017-12-15T15:42:15.601Z,35.00
2017-12-15T15:44:43.117Z,36.00
2017-12-15T15:47:10.636Z,49.00
2017-12-15T15:49:38.233Z,40.83
2017-12-15T15:52:05.739Z,31.80
2017-12-15T15:54:33.232Z,30.12
2017-12-15T15:57:00.792Z,37.00
2017-12-15T15:59:28.913Z,31.50
2017-12-15T16:01:56.424Z,31.40
2017-12-15T16:04:23.956Z,37.20
2017-12-15T16:06:52.955Z,31.52
2017-12-15T16:09:21.335Z,34.42
2017-12-15T16:11:49.623Z,34.45
2017-12-15T16:14:17.868Z,41.35
2017-12-15T16:16:45.382Z,39.10
2017-12-15T16:19:13.537Z,40.53
2017-12-15T16:21:41.819Z,39.38
2017-12-15T16:24:10.413Z,38.10
2017-12-15T16:26:38.668Z,37.90
2017-12-15T16:29:06.281Z,37.70
2017-12-15T16:31:33.778Z,34.03
2017-12-15T16:34:01.272Z,43.37
2017-12-15T16:36:29.557Z,39.30
2017-12-15T16:38:57.976Z,39.50
2017-12-15T16:41:25.512Z,40.95
2017-12-15T16:43:53.761Z,40.30
2017-12-15T16:46:21.555Z,39.85
2017-12-15T16:48:49.829Z,40.72
2017-12-15T16:51:17.336Z,38.45
2017-12-15T16:53:44.836Z,40.35
2017-12-15T16:56:12.364Z,36.25
2017-12-15T16:58:39.907Z,41.95
2017-12-15T17:01:07.416Z,37.35
2017-12-15T17:03:34.925Z,47.55
2017-12-15T17:06:02.417Z,41.60
2017-12-15T17:08:29.944Z,43.87
2017-12-15T17:10:58.317Z,38.80
2017-12-15T17:13:25.838Z,40.72
2017-12-15T17:15:53.329Z,44.15
2017-12-15T17:18:20.846Z,33.78
2017-12-15T17:20:48.356Z,40.15
2017-12-15T17:23:15.954Z,41.10
2017-12-15T17:25:44.229Z,40.83
2017-12-15T17:28:12.642Z,38.47
2017-12-15T17:30:41.350Z,37.55
2017-12-15T17:33:09.789Z,42.88
2017-12-15T17:35:37.784Z,42.67
2017-12-15T17:38:05.285Z,35.17
2017-12-15T17:40:32.885Z,41.35
2017-12-15T17:43:01.162Z,39.42
2017-12-15T17:45:28.804Z,48.35
2017-12-15T17:47:56.357Z,40.90
2017-12-15T17:50:23.860Z,42.20
2017-12-15T17:52:52.157Z,40.75
2017-12-15T17:55:19.750Z,39.40
2017-12-15T17:57:47.232Z,41.63
2017-12-15T18:00:14.837Z,46.17
2017-12-15T18:02:43.145Z,39.92
2017-12-15T18:05:10.707Z,41.92
2017-12-15T18:07:38.258Z,47.05
2017-12-15T18:10:05.801Z,40.78
2017-12-15T18:12:33.357Z,35.50
2017-12-15T18:15:01.647Z,42.58
2017-12-15T18:17:29.934Z,48.45
2017-12-15T18:19:58.214Z,52.05
2017-12-15T18:22:26.501Z,50.53
2017-12-15T18:24:55.583Z,43.28
2017-12-15T18:27:23.855Z,48.53
2017-12-15T18:29:51.369Z,38.07
2017-12-15T18:32:18.896Z,44.00
2017-12-15T18:34:47.271Z,41.90
2017-12-15T18:37:14.780Z,45.20
2017-12-15T18:39:42.315Z,38.08
2017-12-15T18:42:10.574Z,47.33
2017-12-15T18:44:38.176Z,37.60
2017-12-15T18:47:05.749Z,39.78
2017-12-15T18:49:33.315Z,38.78
2017-12-15T18:52:00.939Z,47.05
2017-12-15T18:54:29.240Z,43.65
2017-12-15T18:56:57.626Z,42.70
2017-12-15T18:59:25.158Z,43.22
2017-12-15T19:01:52.643Z,40.85
2017-12-15T19:04:20.939Z,46.85
2017-12-15T19:06:48.450Z,44.30
2017-12-15T19:09:16.087Z,41.90
2017-12-15T19:11:43.629Z,42.20
2017-12-15T19:14:11.147Z,47.40
2017-12-15T19:16:38.669Z,41.72
2017-12-15T19:19:06.180Z,40.00
2017-12-15T19:21:33.680Z,38.55
2017-12-15T19:24:01.171Z,32.72
2017-12-15T19:26:28.683Z,44.73
2017-12-15T19:28:57.781Z,45.97
2017-12-15T19:31:25.312Z,37.90
2017-12-15T19:33:52.856Z,39.45
2017-12-15T19:36:20.588Z,42.28
2017-12-15T19:38:48.866Z,42.75
2017-12-15T19:41:16.369Z,40.83
2017-12-15T19:43:43.955Z,39.78
2017-12-15T19:46:11.502Z,39.10
2017-12-15T19:48:39.069Z,48.53
2017-12-15T19:51:06.602Z,48.55
2017-12-15T19:53:34.982Z,38.73
2017-12-15T19:56:03.031Z,35.13
2017-12-15T19:58:30.651Z,47.42
2017-12-15T20:00:58.203Z,42.45
2017-12-15T20:03:25.880Z,38.60
2017-12-15T20:05:53.479Z,40.30
2017-12-15T20:08:21.310Z,36.60
2017-12-15T20:10:49.005Z,33.33
2017-12-15T20:13:16.836Z,38.13
2017-12-15T20:15:44.685Z,40.70
2017-12-15T20:18:12.605Z,41.40
2017-12-15T20:20:40.964Z,43.70
2017-12-15T20:23:08.749Z,40.90
2017-12-15T20:25:36.616Z,34.67
2017-12-15T20:28:04.488Z,30.43
2017-12-15T20:30:32.255Z,36.33
2017-12-15T20:33:00.133Z,30.25
2017-12-15T20:35:28.101Z,41.95
2017-12-15T20:37:56.085Z,43.87
2017-12-15T20:40:24.056Z,47.23
2017-12-15T20:42:52.321Z,36.72
2017-12-15T20:45:19.968Z,37.43
2017-12-15T20:47:47.779Z,42.60
2017-12-15T20:50:15.580Z,43.22
2017-12-15T20:52:44.334Z,35.17
2017-12-15T20:55:12.302Z,39.30
2017-12-15T20:57:39.988Z,31.80
2017-12-15T21:00:07.739Z,35.80
2017-12-15T21:02:35.609Z,44.53
2017-12-15T21:05:03.259Z,38.20
2017-12-15T21:07:31.149Z,28.60
2017-12-15T21:09:58.851Z,35.28
2017-12-15T21:12:27.265Z,31.27
2017-12-15T21:14:54.838Z,28.12
2017-12-15T21:17:23.127Z,25.60
2017-12-15T21:19:50.692Z,30.70
2017-12-15T21:22:18.214Z,29.37
2017-12-15T21:24:45.800Z,40.05
2017-12-15T21:27:13.297Z,42.10
2017-12-15T21:29:40.809Z,51.40
2017-12-15T21:32:08.599Z,45.40
2017-12-15T21:34:36.921Z,35.55
2017-12-15T21:37:04.899Z,32.40
2017-12-15T21:39:32.423Z,39.10
2017-12-15T21:42:00.692Z,42.00
2017-12-15T21:44:28.948Z,40.12
2017-12-15T21:46:56.505Z,35.60
2017-12-15T21:49:23.985Z,35.17
2017-12-15T21:51:51.587Z,35.70
2017-12-15T21:54:19.090Z,31.05
2017-12-15T21:56:46.604Z,37.47
2017-12-15T21:59:14.848Z,31.17
2017-12-15T22:01:42.384Z,38.00
2017-12-15T22:04:09.875Z,30.70
2017-12-15T22:06:37.374Z,36.93
2017-12-15T22:09:05.633Z,30.90
2017-12-15T22:11:33.972Z,30.02
2017-12-15T22:14:01.720Z,29.70
2017-12-15T22:16:30.122Z,31.27
2017-12-15T22:18:57.841Z,36.23
2017-12-15T22:21:25.833Z,24.00
2017-12-15T22:23:54.229Z,32.77
2017-12-15T22:26:22.581Z,29.43
2017-12-15T22:28:50.065Z,29.37
2017-12-15T22:31:18.340Z,29.20
2017-12-15T22:33:46.629Z,28.67
2017-12-15T22:36:14.121Z,28.08
2017-12-15T22:38:41.613Z,24.23
2017-12-15T22:41:09.323Z,28.20
2017-12-15T22:43:36.912Z,23.67
2017-12-15T22:46:04.489Z,26.77
2017-12-15T22:48:31.981Z,28.17
2017-12-15T22:51:00.474Z,26.20
2017-12-15T22:53:28.148Z,25.10
2017-12-15T22:55:55.660Z,24.80
2017-12-15T22:58:23.449Z,22.25
2017-12-15T23:00:51.526Z,33.35
2017-12-15T23:03:19.179Z,23.73
2017-12-15T23:05:46.692Z,19.57
2017-12-15T23:08:15.221Z,26.85
2017-12-15T23:10:44.299Z,32.92
2017-12-15T23:13:11.776Z,37.88
2017-12-15T23:15:39.277Z,37.65
2017-12-15T23:18:06.830Z,26.30
2017-12-15T23:20:34.840Z,31.30
2017-12-15T23:23:03.143Z,26.12
2017-12-15T23:25:31.002Z,25.23
2017-12-15T23:27:59.260Z,33.90
2017-12-15T23:30:26.762Z,29.80
2017-12-15T23:32:54.269Z,31.20
2017-12-15T23:35:22.095Z,33.67
2017-12-15T23:37:49.577Z,31.43
2017-12-15T23:40:17.077Z,27.30
2017-12-15T23:42:44.657Z,34.10
2017-12-15T23:45:12.251Z,30.13
2017-12-15T23:47:39.739Z,31.13
2017-12-15T23:50:07.245Z,32.80
2017-12-15T23:52:34.748Z,29.70
2017-12-15T23:55:14.236Z,26.77
2017-12-15T23:57:42.489Z,31.17
